Time;durP1;ratioP1;P1;durP2;ratioP2;P2;SDS_P1;SDS_P2;PMS_P1;PMS_P2;Temp;Humidity;BMP_temperature;BMP_pressure;BME280_temperature;BME280_humidity;BME280_pressure;Samples;Min_cycle;Max_cycle;Signal;HPM_P1;HPM_P2
2021/11/14 00:00:10;;;;;;;4.22;2.05;;;9.50;93.10;;;;;;4919290;29;20079;-78
2021/11/14 00:02:36;;;;;;;1.92;1.33;;;9.50;93.10;;;;;;4920058;29;20054;-76
2021/11/14 00:05:02;;;;;;;2.92;1.73;;;9.50;93.10;;;;;;4903398;29;20130;-79
2021/11/14 00:07:28;;;;;;;2.42;1.50;;;9.40;93.20;;;;;;4936327;29;20044;-77
2021/11/14 00:09:53;;;;;;;2.67;1.45;;;9.40;93.20;;;;;;4936482;29;20108;-78
2021/11/14 00:12:19;;;;;;;3.10;1.52;;;9.30;93.20;;;;;;4936150;29;20130;-78
2021/11/14 00:14:45;;;;;;;3.30;1.67;;;9.30;93.20;;;;;;4935791;29;20040;-78
2021/11/14 00:17:11;;;;;;;2.67;1.42;;;9.30;93.20;;;;;;4936108;29;20565;-78
2021/11/14 00:19:36;;;;;;;3.38;1.75;;;9.30;93.20;;;;;;4935593;29;20110;-78
2021/11/14 00:22:02;;;;;;;3.17;1.70;;;9.30;93.20;;;;;;4918392;29;20071;-78
2021/11/14 00:24:28;;;;;;;2.80;1.50;;;9.20;93.20;;;;;;4935742;29;20039;-78
2021/11/14 00:26:54;;;;;;;3.80;2.00;;;9.30;93.30;;;;;;4918682;29;20462;-77
2021/11/14 00:29:20;;;;;;;2.75;1.65;;;9.20;93.30;;;;;;4918461;29;20180;-78
2021/11/14 00:31:46;;;;;;;3.38;1.70;;;9.20;93.40;;;;;;4918495;29;20398;-78
2021/11/14 00:34:12;;;;;;;3.53;1.73;;;9.20;93.30;;;;;;4918466;29;20039;-78
2021/11/14 00:36:39;;;;;;;3.17;1.60;;;9.10;93.30;;;;;;4935532;29;20040;-78
2021/11/14 00:39:08;;;;;;;1.77;1.13;;;9.10;93.30;;;;;;4900873;29;20075;-78
2021/11/14 00:41:34;;;;;;;2.65;1.52;;;9.10;93.30;;;;;;4933922;29;20425;-78
2021/11/14 00:44:00;;;;;;;2.55;1.42;;;9.10;93.30;;;;;;4908463;29;20044;-78
2021/11/14 00:46:26;;;;;;;2.45;1.27;;;9.10;93.30;;;;;;4913058;29;20047;-78
2021/11/14 00:48:53;;;;;;;1.85;1.08;;;9.10;93.30;;;;;;4918352;29;20407;-78
2021/11/14 00:51:27;;;;;;;2.05;1.17;;;9.00;93.30;;;;;;4918439;29;20497;-78
2021/11/14 00:53:54;;;;;;;2.55;1.30;;;9.10;93.40;;;;;;4933246;29;20522;-79
2021/11/14 00:56:20;;;;;;;1.70;1.17;;;9.00;93.30;;;;;;4934974;29;20512;-79
2021/11/14 00:58:45;;;;;;;1.80;0.93;;;9.10;93.30;;;;;;4918682;29;20103;-79
2021/11/14 01:01:11;;;;;;;2.08;1.10;;;9.10;93.30;;;;;;4918048;29;20100;-78
2021/11/14 01:03:37;;;;;;;1.88;1.08;;;9.10;93.30;;;;;;4918217;29;20040;-79
2021/11/14 01:06:03;;;;;;;2.25;1.30;;;9.10;93.30;;;;;;4935481;29;20031;-78
2021/11/14 01:08:29;;;;;;;2.03;1.02;;;9.20;93.30;;;;;;4918371;29;20131;-79
2021/11/14 01:10:58;;;;;;;2.00;1.20;;;9.10;93.30;;;;;;4918124;29;20401;-79
2021/11/14 01:13:24;;;;;;;2.83;1.50;;;9.10;93.30;;;;;;4935238;29;20529;-79
2021/11/14 01:15:52;;;;;;;2.72;1.30;;;9.10;93.20;;;;;;4917734;29;20131;-78
2021/11/14 01:18:20;;;;;;;1.98;1.10;;;9.10;93.20;;;;;;4918168;29;20047;-78
2021/11/14 01:20:52;;;;;;;1.42;1.02;;;9.10;93.20;;;;;;4934960;29;20051;-79
2021/11/14 01:23:18;;;;;;;;;;;9.10;93.20;;;;;;4935701;29;20039;-78
2021/11/14 01:25:45;;;;;;;1.60;1.02;;;9.00;93.20;;;;;;4917689;29;20042;-78
2021/11/14 01:28:12;;;;;;;1.45;0.88;;;9.10;93.20;;;;;;4933221;29;20502;-78
2021/11/14 01:30:41;;;;;;;2.22;1.08;;;9.10;93.20;;;;;;4916866;29;20153;-79
2021/11/14 01:33:08;;;;;;;1.70;1.00;;;9.10;93.20;;;;;;4934429;29;20127;-78
2021/11/14 01:35:36;;;;;;;2.92;1.40;;;9.00;93.20;;;;;;4934707;29;20498;-78
2021/11/14 01:38:04;;;;;;;2.15;1.13;;;9.00;93.20;;;;;;4917412;29;20079;-78
2021/11/14 01:40:37;;;;;;;1.60;1.10;;;9.00;93.20;;;;;;4933126;29;20043;-78
2021/11/14 01:43:06;;;;;;;1.67;1.10;;;9.10;93.20;;;;;;4917452;29;20046;-78
2021/11/14 01:45:32;;;;;;;1.38;0.93;;;9.00;93.30;;;;;;4934873;29;20044;-78
2021/11/14 01:47:58;;;;;;;2.08;1.20;;;9.00;93.30;;;;;;4917561;29;20120;-78
2021/11/14 01:50:24;;;;;;;1.42;1.13;;;9.00;93.30;;;;;;4917282;29;20051;-78
2021/11/14 01:52:52;;;;;;;1.90;1.20;;;9.10;93.30;;;;;;4907684;29;20043;-78
2021/11/14 01:55:22;;;;;;;2.35;1.02;;;9.00;93.30;;;;;;4917458;29;20486;-78
2021/11/14 01:57:48;;;;;;;2.22;1.20;;;9.00;93.30;;;;;;4917280;29;20070;-78
2021/11/14 02:00:25;;;;;;;1.70;0.93;;;9.00;93.20;;;;;;4917097;29;20039;-80
2021/11/14 02:02:51;;;;;;;2.38;1.20;;;9.00;93.20;;;;;;4915391;29;20043;-79
2021/11/14 02:05:22;;;;;;;1.80;1.20;;;9.00;93.20;;;;;;4932919;29;20462;-78
2021/11/14 02:07:52;;;;;;;1.45;1.10;;;9.00;93.20;;;;;;4918200;29;20175;-79
2021/11/14 02:10:19;;;;;;;2.30;1.10;;;9.00;93.20;;;;;;4933065;29;20402;-78
2021/11/14 02:12:45;;;;;;;1.75;1.00;;;9.00;93.20;;;;;;4934557;29;20413;-79
2021/11/14 02:15:11;;;;;;;1.40;0.88;;;9.00;93.20;;;;;;4934497;29;20047;-79
2021/11/14 02:17:37;;;;;;;1.77;1.00;;;9.00;93.20;;;;;;4932933;29;20054;-78
2021/11/14 02:20:06;;;;;;;1.63;1.00;;;9.00;93.20;;;;;;4934550;29;20393;-78
2021/11/14 02:22:32;;;;;;;2.42;1.35;;;9.00;93.20;;;;;;4917047;29;20409;-78
2021/11/14 02:24:57;;;;;;;1.80;1.08;;;9.00;93.20;;;;;;4933996;29;20467;-78
2021/11/14 02:27:23;;;;;;;2.58;1.48;;;9.00;93.30;;;;;;4934436;29;20071;-78
2021/11/14 02:29:49;;;;;;;2.17;1.30;;;8.90;93.20;;;;;;4934202;29;20461;-79
2021/11/14 02:32:15;;;;;;;2.22;1.10;;;8.90;93.30;;;;;;4934288;29;20641;-79
2021/11/14 02:34:41;;;;;;;1.73;0.90;;;8.90;93.30;;;;;;4901357;29;20071;-78
2021/11/14 02:37:07;;;;;;;2.35;1.30;;;8.80;93.30;;;;;;4917373;29;20048;-79
2021/11/14 02:39:33;;;;;;;2.13;1.05;;;8.80;93.30;;;;;;4901024;29;20435;-79
2021/11/14 02:41:59;;;;;;;1.58;1.00;;;8.80;93.30;;;;;;4934308;29;20103;-78
2021/11/14 02:44:26;;;;;;;2.65;1.38;;;8.80;93.30;;;;;;4919993;29;20386;-78
2021/11/14 02:46:52;;;;;;;1.65;1.30;;;8.80;93.30;;;;;;4937277;29;20482;-78
2021/11/14 02:49:18;;;;;;;1.70;1.13;;;8.90;93.30;;;;;;4935862;29;20028;-79
2021/11/14 02:51:44;;;;;;;1.88;1.20;;;8.90;93.30;;;;;;4937303;29;20039;-78
2021/11/14 02:54:10;;;;;;;2.42;1.17;;;8.90;93.30;;;;;;4919513;29;20095;-78
2021/11/14 02:56:36;;;;;;;1.58;1.00;;;8.90;93.30;;;;;;4904259;29;20075;-78
2021/11/14 02:59:03;;;;;;;1.85;1.13;;;8.90;93.20;;;;;;4936910;29;20122;-78
2021/11/14 03:01:34;;;;;;;3.67;1.70;;;9.00;93.20;;;;;;4937175;29;20521;-78
2021/11/14 03:04:00;;;;;;;3.50;1.58;;;9.00;93.20;;;;;;4913819;29;20485;-78
2021/11/14 03:06:29;;;;;;;2.83;1.50;;;9.00;93.20;;;;;;4920177;29;20051;-78
2021/11/14 03:08:55;;;;;;;2.47;1.30;;;9.00;93.20;;;;;;4904110;29;20051;-78
2021/11/14 03:11:21;;;;;;;4.22;1.80;;;9.10;93.20;;;;;;4919564;29;20055;-78
2021/11/14 03:13:47;;;;;;;4.13;1.73;;;9.10;93.20;;;;;;4919711;29;20071;-79
2021/11/14 03:16:16;;;;;;;3.42;1.80;;;9.00;93.10;;;;;;4936618;29;20039;-79
2021/11/14 03:18:42;;;;;;;5.05;1.88;;;9.10;93.20;;;;;;4903693;29;20099;-78
2021/11/14 03:21:09;;;;;;;4.05;1.67;;;9.10;93.10;;;;;;4919646;29;20077;-78
2021/11/14 03:23:35;;;;;;;3.55;1.60;;;9.10;93.40;;;;;;4903934;29;20075;-79
2021/11/14 03:26:02;;;;;;;5.85;2.30;;;9.10;93.10;;;;;;4919234;29;20142;-79
2021/11/14 03:28:28;;;;;;;2.53;1.40;;;9.20;93.10;;;;;;4919498;29;20118;-78
2021/11/14 03:30:56;;;;;;;5.70;2.08;;;9.10;93.10;;;;;;4903437;29;20095;-78
2021/11/14 03:33:23;;;;;;;3.78;1.88;;;9.20;93.10;;;;;;4936035;29;20051;-79
2021/11/14 03:35:59;;;;;;;3.85;1.60;;;9.10;93.10;;;;;;4936633;29;20048;-79
2021/11/14 03:38:31;;;;;;;3.25;1.58;;;9.20;93.10;;;;;;4936411;29;20044;-78
2021/11/14 03:40:58;;;;;;;2.92;1.48;;;9.20;93.10;;;;;;4919739;29;20040;-78
2021/11/14 03:43:24;;;;;;;3.60;1.88;;;9.20;93.10;;;;;;4936096;29;20123;-78
2021/11/14 03:45:50;;;;;;;3.45;1.60;;;9.20;93.10;;;;;;4935260;29;20039;-78
2021/11/14 03:48:16;;;;;;;3.83;1.73;;;9.10;93.00;;;;;;4936660;29;20035;-79
2021/11/14 03:50:42;;;;;;;3.85;1.80;;;9.30;93.10;;;;;;4936383;29;20047;-78
2021/11/14 03:53:09;;;;;;;5.25;1.88;;;9.20;93.10;;;;;;4918571;29;20085;-78
2021/11/14 03:55:35;;;;;;;3.90;1.80;;;9.30;93.10;;;;;;4918874;29;20047;-78
2021/11/14 03:58:02;;;;;;;4.13;2.00;;;9.30;93.10;;;;;;4936012;29;20130;-79
2021/11/14 04:00:31;;;;;;;6.25;2.00;;;9.30;93.10;;;;;;4887527;29;20036;-79
2021/11/14 04:02:58;;;;;;;5.22;2.40;;;9.40;93.10;;;;;;4934652;29;20486;-78
2021/11/14 04:05:29;;;;;;;4.55;2.03;;;9.30;93.00;;;;;;4887448;29;20047;-78
2021/11/14 04:07:55;;;;;;;4.85;2.20;;;9.30;93.00;;;;;;4936229;29;20075;-78
2021/11/14 04:10:21;;;;;;;5.63;2.20;;;9.30;93.00;;;;;;4936231;29;20478;-79
2021/11/14 04:12:47;;;;;;;6.00;2.55;;;9.30;93.00;;;;;;4903071;29;20103;-78
2021/11/14 04:15:14;;;;;;;6.65;2.40;;;9.30;93.00;;;;;;4910593;29;20528;-78
2021/11/14 04:17:41;;;;;;;5.18;2.58;;;9.30;93.00;;;;;;4936033;29;20930;-79
2021/11/14 04:20:10;;;;;;;6.13;2.50;;;9.40;93.00;;;;;;4935715;29;20504;-79
2021/11/14 04:22:36;;;;;;;5.32;2.17;;;9.40;93.00;;;;;;4918791;29;20039;-78
2021/11/14 04:25:02;;;;;;;6.25;2.80;;;9.40;93.00;;;;;;4899960;29;20036;-79
2021/11/14 04:27:28;;;;;;;5.13;2.63;;;9.40;93.00;;;;;;4910107;29;20442;-78
2021/11/14 04:29:53;;;;;;;5.90;2.30;;;9.40;93.00;;;;;;4918431;29;20036;-79
2021/11/14 04:32:19;;;;;;;6.13;2.58;;;9.40;93.00;;;;;;4903010;29;20047;-79
2021/11/14 04:34:45;;;;;;;5.68;2.67;;;9.40;93.00;;;;;;4908393;29;20044;-79
2021/11/14 04:37:10;;;;;;;5.15;2.50;;;9.40;93.00;;;;;;4935306;29;20394;-79
2021/11/14 04:39:36;;;;;;;4.63;2.38;;;9.40;93.00;;;;;;4918337;29;20065;-79
2021/11/14 04:42:05;;;;;;;5.43;2.30;;;9.50;93.10;;;;;;4935791;29;20047;-79
2021/11/14 04:44:31;;;;;;;5.45;2.30;;;9.40;93.00;;;;;;4935702;29;20389;-79
2021/11/14 04:46:57;;;;;;;6.47;2.70;;;9.40;93.00;;;;;;4902671;29;20048;-80
2021/11/14 04:49:23;;;;;;;5.10;2.40;;;9.40;93.00;;;;;;4918163;29;20039;-79
2021/11/14 04:51:50;;;;;;;6.13;2.38;;;9.50;93.10;;;;;;4916445;29;20078;-79
2021/11/14 04:54:17;;;;;;;5.20;2.50;;;9.50;93.10;;;;;;4918458;29;20067;-79
2021/11/14 04:56:43;;;;;;;6.28;2.80;;;9.50;93.10;;;;;;4908328;29;20457;-79
2021/11/14 04:59:09;;;;;;;4.93;2.35;;;9.40;93.00;;;;;;4934079;29;20374;-79
2021/11/14 05:01:36;;;;;;;6.28;2.75;;;9.50;93.10;;;;;;4918316;29;20127;-78
2021/11/14 05:04:02;;;;;;;5.30;2.20;;;9.60;93.10;;;;;;4933396;29;20410;-78
2021/11/14 05:06:28;;;;;;;5.72;2.58;;;9.40;93.10;;;;;;4917348;29;20048;-79
2021/11/14 05:08:54;;;;;;;6.15;2.50;;;9.40;93.00;;;;;;4935321;29;20043;-78
2021/11/14 05:11:19;;;;;;;5.40;2.60;;;9.40;93.00;;;;;;4910001;29;20134;-79
2021/11/14 05:13:45;;;;;;;6.70;2.53;;;9.50;93.10;;;;;;4902011;29;20135;-79
2021/11/14 05:16:12;;;;;;;7.18;3.17;;;9.40;93.00;;;;;;4917524;29;20502;-79
2021/11/14 05:18:37;;;;;;;5.28;2.47;;;9.50;93.10;;;;;;4902520;29;20040;-78
2021/11/14 05:21:04;;;;;;;6.75;2.97;;;9.50;93.10;;;;;;4918107;29;20043;-78
2021/11/14 05:23:29;;;;;;;6.45;2.75;;;9.50;93.10;;;;;;4902260;29;20031;-79
2021/11/14 05:25:55;;;;;;;7.43;2.80;;;9.50;93.10;;;;;;4917724;29;20036;-78
2021/11/14 05:28:21;;;;;;;7.68;3.53;;;9.50;93.10;;;;;;4935097;29;20119;-79
2021/11/14 05:30:47;;;;;;;7.10;2.65;;;9.40;93.00;;;;;;4917968;29;20525;-78
2021/11/14 05:33:14;;;;;;;5.35;2.78;;;9.50;93.10;;;;;;4933800;29;20387;-78
2021/11/14 05:35:41;;;;;;;6.22;2.90;;;9.50;93.00;;;;;;4917509;29;20099;-79
2021/11/14 05:38:07;;;;;;;6.03;3.00;;;9.60;93.10;;;;;;4902020;29;20052;-79
2021/11/14 05:40:35;;;;;;;5.50;2.70;;;9.50;93.10;;;;;;4917615;29;20044;-79
2021/11/14 05:43:01;;;;;;;6.88;3.03;;;9.50;93.10;;;;;;4917836;29;20038;-79
2021/11/14 05:45:27;;;;;;;7.88;2.92;;;9.50;93.10;;;;;;4917600;29;20047;-79
2021/11/14 05:47:54;;;;;;;5.45;2.60;;;9.50;93.10;;;;;;4913881;29;20051;-79
2021/11/14 05:50:20;;;;;;;6.72;2.75;;;9.60;93.10;;;;;;4917909;29;20059;-80
2021/11/14 05:52:46;;;;;;;6.03;2.53;;;9.50;93.10;;;;;;4934907;29;20480;-79
2021/11/14 05:55:12;;;;;;;6.35;2.80;;;9.50;93.10;;;;;;4918020;29;20048;-79
2021/11/14 05:57:48;;;;;;;5.45;2.53;;;9.50;93.10;;;;;;4934931;29;20047;-79
2021/11/14 06:00:21;;;;;;;5.05;2.42;;;9.50;93.10;;;;;;4914892;29;20047;-79
2021/11/14 06:02:52;;;;;;;6.55;2.85;;;9.50;93.10;;;;;;4952025;29;20417;-79
2021/11/14 06:05:18;;;;;;;6.55;3.00;;;9.50;93.10;;;;;;4918424;29;20043;-79
2021/11/14 06:07:46;;;;;;;4.93;2.40;;;9.40;93.10;;;;;;4917575;29;20508;-78
2021/11/14 06:10:12;;;;;;;6.07;2.50;;;9.60;93.10;;;;;;4884283;29;20179;-79
2021/11/14 06:12:39;;;;;;;6.15;2.78;;;9.50;93.10;;;;;;4917281;29;20451;-79
2021/11/14 06:15:07;;;;;;;5.50;2.80;;;9.50;93.10;;;;;;4934857;29;20394;-79
2021/11/14 06:17:33;;;;;;;5.95;2.83;;;9.60;93.10;;;;;;4936783;29;20047;-79
2021/11/14 06:19:59;;;;;;;6.63;2.70;;;9.60;93.10;;;;;;4938181;29;20031;-79
2021/11/14 06:22:24;;;;;;;7.30;2.88;;;9.60;93.00;;;;;;4921090;29;20087;-79
2021/11/14 06:24:50;;;;;;;6.32;2.90;;;9.60;93.00;;;;;;4921208;29;20099;-80
2021/11/14 06:27:16;;;;;;;6.07;2.92;;;9.70;93.10;;;;;;4921219;29;20123;-80
2021/11/14 06:29:42;;;;;;;6.25;2.70;;;9.60;93.00;;;;;;4920506;29;20482;-80
2021/11/14 06:32:09;;;;;;;6.28;2.65;;;9.60;93.00;;;;;;4938841;29;20047;-81
2021/11/14 06:34:35;;;;;;;5.38;2.63;;;9.60;93.10;;;;;;4916837;29;20469;-80
2021/11/14 06:37:01;;;;;;;6.10;2.60;;;9.60;93.00;;;;;;4921182;29;20052;-80
2021/11/14 06:39:27;;;;;;;5.07;2.47;;;9.60;93.10;;;;;;4905369;29;20042;-80
2021/11/14 06:41:52;;;;;;;6.13;2.83;;;9.60;93.10;;;;;;4920373;29;20038;-80
2021/11/14 06:44:18;;;;;;;7.05;3.00;;;9.60;93.00;;;;;;4904641;29;20118;-80
2021/11/14 06:46:44;;;;;;;4.68;2.35;;;9.60;93.00;;;;;;4920369;29;20036;-80
2021/11/14 06:49:10;;;;;;;5.72;2.47;;;9.60;93.00;;;;;;4938169;29;20066;-80
2021/11/14 06:51:36;;;;;;;5.00;2.45;;;9.60;93.00;;;;;;4938041;29;20136;-80
2021/11/14 06:54:02;;;;;;;6.95;2.63;;;9.60;93.00;;;;;;4920802;29;20051;-80
2021/11/14 06:56:27;;;;;;;5.22;2.67;;;9.60;93.00;;;;;;4920035;29;20429;-80
2021/11/14 06:58:53;;;;;;;5.75;2.58;;;9.70;93.10;;;;;;4920247;29;20059;-81
2021/11/14 07:01:19;;;;;;;5.05;2.60;;;9.60;93.00;;;;;;4920289;29;20038;-80
2021/11/14 07:03:47;;;;;;;5.88;2.65;;;9.60;93.00;;;;;;4920840;29;20038;-81
2021/11/14 07:06:13;;;;;;;6.78;3.00;;;9.70;93.00;;;;;;4921179;29;21268;-80
2021/11/14 07:08:39;;;;;;;4.85;2.35;;;9.60;93.00;;;;;;4920042;29;20116;-80
2021/11/14 07:11:04;;;;;;;5.80;2.63;;;9.60;93.00;;;;;;4920170;29;20040;-80
2021/11/14 07:13:32;;;;;;;4.93;2.80;;;9.70;93.00;;;;;;4918089;29;20062;-80
2021/11/14 07:15:58;;;;;;;6.90;2.60;;;9.70;93.00;;;;;;4920267;29;20043;-80
2021/11/14 07:18:24;;;;;;;5.28;2.38;;;9.60;93.00;;;;;;4920574;29;20505;-81
2021/11/14 07:20:50;;;;;;;7.82;3.30;;;9.70;93.00;;;;;;4919995;29;20043;-80
2021/11/14 07:23:16;;;;;;;5.57;2.40;;;9.70;93.00;;;;;;4919412;29;20074;-80
2021/11/14 07:25:42;;;;;;;5.03;2.65;;;9.80;93.00;;;;;;4936825;29;20071;-80
2021/11/14 07:28:08;;;;;;;4.75;2.28;;;9.70;93.00;;;;;;4918200;29;20065;-80
2021/11/14 07:30:34;;;;;;;5.72;2.60;;;9.70;93.00;;;;;;4920334;29;20039;-80
2021/11/14 07:33:00;;;;;;;4.88;2.53;;;9.70;93.00;;;;;;4936380;29;20051;-80
2021/11/14 07:35:26;;;;;;;6.50;3.03;;;9.70;93.00;;;;;;4910594;29;20070;-80
2021/11/14 07:37:53;;;;;;;4.88;2.30;;;9.80;93.00;;;;;;4938168;29;20070;-77
2021/11/14 07:40:22;;;;;;;5.60;2.60;;;9.60;93.00;;;;;;4938571;29;20113;-78
2021/11/14 07:42:50;;;;;;;5.13;2.50;;;9.70;93.00;;;;;;4936746;29;20430;-78
2021/11/14 07:45:17;;;;;;;5.50;2.40;;;9.70;93.00;;;;;;4921561;29;20047;-77
2021/11/14 07:47:44;;;;;;;5.40;2.22;;;9.70;93.00;;;;;;4934771;29;20471;-77
2021/11/14 07:50:11;;;;;;;4.80;2.35;;;9.70;93.00;;;;;;4920899;29;20039;-77
2021/11/14 07:52:37;;;;;;;4.07;1.85;;;9.70;93.00;;;;;;4936385;29;20039;-77
2021/11/14 07:55:06;;;;;;;3.30;1.70;;;9.70;93.00;;;;;;4938248;29;20043;-77
2021/11/14 07:57:32;;;;;;;5.55;2.40;;;9.70;93.00;;;;;;4920901;29;20043;-77
2021/11/14 07:59:57;;;;;;;4.95;2.50;;;9.70;93.00;;;;;;4938078;29;20383;-77
2021/11/14 08:02:23;;;;;;;4.70;2.10;;;9.70;92.90;;;;;;4938117;29;20043;-77
2021/11/14 08:04:49;;;;;;;5.10;2.40;;;9.70;93.00;;;;;;4937904;29;20387;-77
2021/11/14 08:07:14;;;;;;;4.43;2.17;;;9.70;92.90;;;;;;4937921;29;20044;-77
2021/11/14 08:09:40;;;;;;;5.80;2.50;;;9.70;92.90;;;;;;4921045;29;20044;-78
2021/11/14 08:12:07;;;;;;;5.30;2.50;;;9.70;92.90;;;;;;4937855;29;20495;-78
2021/11/14 08:14:32;;;;;;;5.38;2.55;;;9.70;92.90;;;;;;4937095;29;20044;-77
2021/11/14 08:16:58;;;;;;;5.18;2.47;;;9.70;92.90;;;;;;4937870;29;20043;-77
2021/11/14 08:19:24;;;;;;;4.90;2.10;;;9.70;92.90;;;;;;4937372;29;20501;-77
2021/11/14 08:21:50;;;;;;;4.18;2.25;;;9.70;92.90;;;;;;4937330;29;20502;-77
2021/11/14 08:24:15;;;;;;;3.47;1.90;;;9.70;92.90;;;;;;4938237;29;20091;-77
2021/11/14 08:26:41;;;;;;;4.20;1.77;;;9.80;92.90;;;;;;4920748;29;20127;-77
2021/11/14 08:29:07;;;;;;;3.67;1.95;;;9.80;92.90;;;;;;4920327;29;20046;-77
2021/11/14 08:31:32;;;;;;;4.40;2.00;;;9.80;92.90;;;;;;4920101;29;20039;-77
2021/11/14 08:34:00;;;;;;;4.50;2.28;;;9.80;92.90;;;;;;4920800;29;20054;-77
2021/11/14 08:36:27;;;;;;;5.47;2.20;;;9.80;92.90;;;;;;4938077;29;20048;-77
2021/11/14 08:38:55;;;;;;;4.95;2.30;;;9.80;92.90;;;;;;4936362;29;20043;-80
2021/11/14 08:41:23;;;;;;;4.22;2.10;;;9.80;92.80;;;;;;4902862;29;20044;-77
2021/11/14 08:43:49;;;;;;;5.05;2.33;;;9.80;92.90;;;;;;4934851;29;20548;-77
2021/11/14 08:46:14;;;;;;;4.40;2.00;;;9.90;92.80;;;;;;4935503;29;20119;-77
2021/11/14 08:48:40;;;;;;;4.18;1.85;;;9.80;92.80;;;;;;4918739;29;20043;-77
2021/11/14 08:51:06;;;;;;;5.63;2.40;;;9.80;92.80;;;;;;4935180;29;20052;-77
2021/11/14 08:53:32;;;;;;;4.70;1.90;;;9.90;92.80;;;;;;4918534;29;20626;-77
2021/11/14 08:55:58;;;;;;;4.57;1.80;;;9.80;92.80;;;;;;4934072;29;20051;-77
2021/11/14 08:58:25;;;;;;;4.82;1.88;;;9.90;92.80;;;;;;4935633;29;20118;-77
2021/11/14 09:00:53;;;;;;;5.00;2.20;;;9.90;92.80;;;;;;4917954;29;20541;-77
2021/11/14 09:03:20;;;;;;;4.03;1.75;;;9.90;92.80;;;;;;4935345;29;20040;-77
2021/11/14 09:05:46;;;;;;;4.85;2.35;;;9.90;92.80;;;;;;4935691;29;20036;-77
2021/11/14 09:08:12;;;;;;;4.78;1.90;;;9.90;92.70;;;;;;4918533;29;20182;-77
2021/11/14 09:10:40;;;;;;;5.35;2.40;;;9.90;92.70;;;;;;4935511;29;20164;-77
2021/11/14 09:13:08;;;;;;;3.80;1.95;;;9.90;92.70;;;;;;4933680;29;20043;-77
2021/11/14 09:15:34;;;;;;;5.63;2.28;;;9.90;92.70;;;;;;4918118;29;20126;-77
2021/11/14 09:18:00;;;;;;;4.65;2.17;;;9.90;92.70;;;;;;4917941;29;20127;-77
2021/11/14 09:20:27;;;;;;;3.95;1.85;;;9.90;92.70;;;;;;4935211;29;20079;-78
2021/11/14 09:22:53;;;;;;;3.67;2.00;;;9.90;92.70;;;;;;4935186;29;20043;-77
2021/11/14 09:25:21;;;;;;;4.18;1.92;;;9.90;92.70;;;;;;4935126;29;20545;-77
2021/11/14 09:27:48;;;;;;;4.47;2.10;;;10.00;92.70;;;;;;4918037;29;20099;-77
2021/11/14 09:30:14;;;;;;;3.28;1.60;;;10.00;92.70;;;;;;4918667;29;20040;-77
2021/11/14 09:32:40;;;;;;;4.75;1.92;;;10.10;92.70;;;;;;4902200;29;20051;-77
2021/11/14 09:35:07;;;;;;;4.22;1.92;;;10.00;92.70;;;;;;4902299;29;20039;-77
2021/11/14 09:37:32;;;;;;;5.20;2.20;;;10.00;92.70;;;;;;4935330;29;20051;-77
2021/11/14 09:39:58;;;;;;;4.43;1.92;;;10.00;92.70;;;;;;4934674;29;20044;-77
2021/11/14 09:42:27;;;;;;;3.85;1.88;;;10.00;92.70;;;;;;4917672;29;20398;-77
2021/11/14 09:44:54;;;;;;;3.90;1.70;;;10.00;92.70;;;;;;4933521;29;20376;-77
2021/11/14 09:47:20;;;;;;;3.50;1.60;;;10.00;92.70;;;;;;4918462;29;20483;-77
2021/11/14 09:49:46;;;;;;;3.20;1.63;;;10.10;92.60;;;;;;4917578;29;20043;-78
2021/11/14 09:52:12;;;;;;;4.90;1.98;;;10.10;92.60;;;;;;4917008;29;20054;-78
2021/11/14 09:54:39;;;;;;;4.72;1.80;;;10.20;92.70;;;;;;4917835;29;20058;-77
2021/11/14 09:57:07;;;;;;;4.68;1.92;;;10.10;92.60;;;;;;4934661;29;20048;-77
2021/11/14 09:59:33;;;;;;;5.70;2.03;;;10.10;92.60;;;;;;4917663;29;20039;-77
2021/11/14 10:02:01;;;;;;;5.20;2.25;;;10.10;92.60;;;;;;4934523;29;20050;-77
2021/11/14 10:04:27;;;;;;;3.85;1.73;;;10.20;92.60;;;;;;4917872;29;20044;-77
2021/11/14 10:06:57;;;;;;;5.00;2.20;;;10.20;92.60;;;;;;4917433;29;20386;-77
2021/11/14 10:09:38;;;;;;;4.53;2.20;;;10.30;92.60;;;;;;4918229;29;20036;-77
2021/11/14 10:12:22;;;;;;;3.43;1.77;;;10.20;92.50;;;;;;4918375;29;20103;-78
2021/11/14 10:14:51;;;;;;;5.32;2.25;;;10.30;92.50;;;;;;4934909;29;20055;-78
2021/11/14 10:17:22;;;;;;;4.03;1.73;;;10.20;92.50;;;;;;4934645;29;20052;-77
2021/11/14 10:20:03;;;;;;;4.53;1.98;;;10.20;92.50;;;;;;4935016;29;20546;-79
2021/11/14 10:22:30;;;;;;;3.95;1.92;;;10.20;92.40;;;;;;4934645;29;20069;-78
2021/11/14 10:24:55;;;;;;;5.45;2.20;;;10.30;92.50;;;;;;4901692;29;20086;-77
2021/11/14 10:27:26;;;;;;;5.03;2.22;;;10.20;92.50;;;;;;4917622;29;20091;-76
2021/11/14 10:29:53;;;;;;;4.30;2.00;;;10.20;92.50;;;;;;4933164;29;20043;-78
2021/11/14 10:32:20;;;;;;;4.75;1.88;;;10.20;92.40;;;;;;4934535;29;20131;-79
2021/11/14 10:34:49;;;;;;;4.60;2.33;;;10.30;92.50;;;;;;4901850;29;20095;-79
2021/11/14 10:37:19;;;;;;;4.38;1.83;;;10.30;92.50;;;;;;4918339;29;20050;-79
2021/11/14 10:39:49;;;;;;;5.15;2.10;;;10.30;92.50;;;;;;4935192;29;20044;-80
2021/11/14 10:42:18;;;;;;;5.45;2.13;;;10.30;92.50;;;;;;4915870;29;20450;-80
2021/11/14 10:44:54;;;;;;;3.80;1.83;;;10.30;92.50;;;;;;4886408;29;20040;-81
2021/11/14 10:47:22;;;;;;;5.30;1.88;;;10.50;92.50;;;;;;4918084;29;20052;-79
2021/11/14 10:50:07;;;;;;;5.10;2.20;;;10.30;92.40;;;;;;4918095;29;20047;-77
2021/11/14 10:52:35;;;;;;;5.10;2.03;;;10.30;92.40;;;;;;4918773;29;20050;-77
2021/11/14 10:55:05;;;;;;;4.65;2.00;;;10.40;92.40;;;;;;4918777;29;20103;-77
2021/11/14 10:57:34;;;;;;;3.95;1.85;;;10.40;92.40;;;;;;4935441;29;20052;-79
2021/11/14 11:00:00;;;;;;;3.65;1.90;;;10.50;92.30;;;;;;4886042;29;20047;-77
2021/11/14 11:02:27;;;;;;;4.53;1.80;;;10.40;92.30;;;;;;4933285;29;20044;-77
2021/11/14 11:04:54;;;;;;;3.67;1.92;;;10.50;92.30;;;;;;4919621;29;20032;-77
2021/11/14 11:07:21;;;;;;;4.03;1.92;;;10.40;92.20;;;;;;4937238;29;20040;-77
2021/11/14 11:09:54;;;;;;;4.57;2.30;;;10.50;92.30;;;;;;4920235;29;20044;-77
2021/11/14 11:12:24;;;;;;;4.28;1.92;;;10.50;92.30;;;;;;4935401;29;20478;-77
2021/11/14 11:14:52;;;;;;;5.63;2.20;;;10.40;92.30;;;;;;4919938;29;20040;-79
2021/11/14 11:17:18;;;;;;;4.88;2.30;;;10.50;92.30;;;;;;4919560;29;20058;-77
2021/11/14 11:19:44;;;;;;;4.78;2.08;;;10.60;92.30;;;;;;4937382;29;20028;-77
2021/11/14 11:22:09;;;;;;;4.45;2.13;;;10.60;92.30;;;;;;4911586;29;20032;-79
2021/11/14 11:24:46;;;;;;;4.10;2.05;;;10.50;92.30;;;;;;4904064;29;20096;-78
2021/11/14 11:27:12;;;;;;;4.47;2.00;;;10.50;92.20;;;;;;4937033;29;20035;-78
2021/11/14 11:29:40;;;;;;;6.63;2.47;;;10.50;92.20;;;;;;4934694;29;20454;-78
2021/11/14 11:32:08;;;;;;;5.85;2.17;;;10.50;92.20;;;;;;4919485;29;20036;-78
2021/11/14 11:34:34;;;;;;;6.13;2.20;;;10.60;92.20;;;;;;4936790;29;20494;-78
2021/11/14 11:37:00;;;;;;;5.30;2.17;;;10.60;92.20;;;;;;4936722;29;20070;-78
2021/11/14 11:39:27;;;;;;;5.43;2.20;;;10.80;92.30;;;;;;4911471;29;20036;-78
2021/11/14 11:41:54;;;;;;;3.35;1.67;;;10.60;92.20;;;;;;4919944;29;20078;-78
2021/11/14 11:44:20;;;;;;;4.82;2.15;;;10.70;92.20;;;;;;4919463;29;20043;-78
2021/11/14 11:46:51;;;;;;;4.43;1.95;;;10.70;92.20;;;;;;4936377;29;20486;-78
2021/11/14 11:49:21;;;;;;;5.03;1.92;;;10.80;92.20;;;;;;4919218;29;20040;-78
2021/11/14 11:51:51;;;;;;;5.20;2.30;;;10.80;92.10;;;;;;4936541;29;20577;-78
2021/11/14 11:54:20;;;;;;;5.20;2.20;;;10.80;92.10;;;;;;4917554;29;20276;-78
2021/11/14 11:56:50;;;;;;;5.03;2.13;;;10.80;92.10;;;;;;4917420;29;20095;-78
2021/11/14 11:59:26;;;;;;;5.68;2.50;;;10.80;92.10;;;;;;4934757;29;20352;-75
2021/11/14 12:01:56;;;;;;;4.40;2.05;;;10.80;92.10;;;;;;4936650;29;20040;-78
2021/11/14 12:04:33;;;;;;;4.85;2.35;;;10.80;92.00;;;;;;4903590;29;20040;-78
2021/11/14 12:07:10;;;;;;;4.53;2.47;;;10.80;92.00;;;;;;4934952;29;20046;-78
2021/11/14 12:09:43;;;;;;;5.50;2.40;;;10.80;92.10;;;;;;4936185;29;20032;-79
2021/11/14 12:12:22;;;;;;;6.20;2.58;;;10.80;92.10;;;;;;4919658;29;20063;-79
2021/11/14 12:15:06;;;;;;;4.32;2.20;;;10.80;92.00;;;;;;4918728;29;20035;-78
2021/11/14 12:17:33;;;;;;;4.47;2.15;;;10.80;92.00;;;;;;4919041;29;20058;-78
2021/11/14 12:20:10;;;;;;;5.43;2.30;;;10.90;92.00;;;;;;4936643;29;20043;-79
2021/11/14 12:22:47;;;;;;;5.43;2.40;;;10.90;92.00;;;;;;4936429;29;20042;-78
2021/11/14 12:25:27;;;;;;;4.10;2.10;;;11.00;91.90;;;;;;4936118;29;20044;-78
2021/11/14 12:28:11;;;;;;;5.38;2.33;;;10.90;91.90;;;;;;4936439;29;20067;-78
2021/11/14 12:30:43;;;;;;;4.45;2.10;;;11.00;91.90;;;;;;4935885;29;20087;-78
2021/11/14 12:33:21;;;;;;;5.65;2.50;;;11.00;91.80;;;;;;4916832;29;20086;-78
2021/11/14 12:35:48;;;;;;;5.35;1.95;;;11.10;91.80;;;;;;4936209;29;20047;-78
2021/11/14 12:38:24;;;;;;;5.25;2.20;;;11.00;91.80;;;;;;4935442;29;20048;-78
2021/11/14 12:41:07;;;;;;;5.22;2.45;;;11.00;91.80;;;;;;4934276;29;20441;-78
2021/11/14 12:43:42;;;;;;;5.00;2.30;;;11.00;91.80;;;;;;4919705;29;20040;-78
2021/11/14 12:46:11;;;;;;;4.15;2.20;;;11.10;91.80;;;;;;4913902;29;20090;-78
2021/11/14 12:48:40;;;;;;;4.97;2.30;;;11.10;91.80;;;;;;4935833;29;20145;-77
2021/11/14 12:51:12;;;;;;;5.32;2.45;;;11.20;91.80;;;;;;4935803;29;20047;-78
2021/11/14 12:53:48;;;;;;;6.18;2.58;;;11.20;91.70;;;;;;4935854;29;20043;-78
2021/11/14 12:56:17;;;;;;;4.00;2.03;;;11.10;91.70;;;;;;4932242;29;20051;-78